sensor_id;sensor_type;location;lat;lon;timestamp;pressure;altitude;pressure_sealevel;temperature;humidity
56414;BME280;42318;48.452;19.526;2023-04-20T00:04:00;98207.31;;;20.64;51.13
56414;BME280;42318;48.452;19.526;2023-04-20T00:11:31;98206.47;;;20.63;51.11
56414;BME280;42318;48.452;19.526;2023-04-20T00:19:02;98202.94;;;20.63;51.15
56414;BME280;42318;48.452;19.526;2023-04-20T00:26:33;98198.84;;;20.60;51.00
56414;BME280;42318;48.452;19.526;2023-04-20T00:34:03;98197.22;;;20.59;51.19
56414;BME280;42318;48.452;19.526;2023-04-20T00:41:34;98185.50;;;20.59;51.07
56414;BME280;42318;48.452;19.526;2023-04-20T00:49:06;98197.47;;;20.58;51.24
56414;BME280;42318;48.452;19.526;2023-04-20T00:56:37;98199.94;;;20.59;51.12
56414;BME280;42318;48.452;19.526;2023-04-20T01:04:08;98190.94;;;20.59;51.05
56414;BME280;42318;48.452;19.526;2023-04-20T01:11:39;98179.78;;;20.55;50.99
56414;BME280;42318;48.452;19.526;2023-04-20T01:19:10;98186.84;;;20.56;51.19
56414;BME280;42318;48.452;19.526;2023-04-20T01:26:40;98182.22;;;20.57;51.00
56414;BME280;42318;48.452;19.526;2023-04-20T01:34:11;98171.63;;;20.55;50.94
56414;BME280;42318;48.452;19.526;2023-04-20T01:41:42;98174.59;;;20.54;50.96
56414;BME280;42318;48.452;19.526;2023-04-20T01:49:13;98164.25;;;20.51;50.95
56414;BME280;42318;48.452;19.526;2023-04-20T01:56:44;98165.34;;;20.50;50.96
56414;BME280;42318;48.452;19.526;2023-04-20T02:04:14;98169.97;;;20.49;50.95
56414;BME280;42318;48.452;19.526;2023-04-20T02:11:45;98170.78;;;20.50;51.13
56414;BME280;42318;48.452;19.526;2023-04-20T02:19:16;98173.22;;;20.51;51.01
56414;BME280;42318;48.452;19.526;2023-04-20T02:26:47;98166.72;;;20.57;51.11
56414;BME280;42318;48.452;19.526;2023-04-20T02:34:18;98175.44;;;20.59;51.12
56414;BME280;42318;48.452;19.526;2023-04-20T02:41:49;98163.19;;;20.62;51.01
56414;BME280;42318;48.452;19.526;2023-04-20T02:49:20;98164.84;;;20.63;51.20
56414;BME280;42318;48.452;19.526;2023-04-20T02:56:52;98168.91;;;20.65;50.82
56414;BME280;42318;48.452;19.526;2023-04-20T03:04:23;98168.38;;;20.63;50.87
56414;BME280;42318;48.452;19.526;2023-04-20T03:11:55;98169.19;;;20.64;50.67
56414;BME280;42318;48.452;19.526;2023-04-20T03:19:25;98169.47;;;20.62;51.03
56414;BME280;42318;48.452;19.526;2023-04-20T03:26:56;98154.50;;;20.65;50.52
56414;BME280;42318;48.452;19.526;2023-04-20T03:34:27;98159.94;;;20.65;50.38
56414;BME280;42318;48.452;19.526;2023-04-20T03:41:58;98171.38;;;20.62;50.31
56414;BME280;42318;48.452;19.526;2023-04-20T03:49:29;98172.97;;;20.58;50.43
56414;BME280;42318;48.452;19.526;2023-04-20T03:56:59;98182.22;;;20.57;50.51
56414;BME280;42318;48.452;19.526;2023-04-20T04:04:31;98184.97;;;20.57;50.35
56414;BME280;42318;48.452;19.526;2023-04-20T04:12:02;98194.22;;;20.56;50.56
56414;BME280;42318;48.452;19.526;2023-04-20T04:19:34;98183.06;;;20.57;50.55
56414;BME280;42318;48.452;19.526;2023-04-20T04:27:05;98195.56;;;20.58;50.38
56414;BME280;42318;48.452;19.526;2023-04-20T04:34:36;98196.41;;;20.59;50.34
56414;BME280;42318;48.452;19.526;2023-04-20T04:42:07;98211.91;;;20.58;50.25
56414;BME280;42318;48.452;19.526;2023-04-20T04:49:39;98213.53;;;20.59;50.07
56414;BME280;42318;48.452;19.526;2023-04-20T04:57:10;98225.53;;;20.58;49.78
56414;BME280;42318;48.452;19.526;2023-04-20T05:04:41;98224.97;;;20.56;50.08
56414;BME280;42318;48.452;19.526;2023-04-20T05:12:11;98228.78;;;20.55;50.05
56414;BME280;42318;48.452;19.526;2023-04-20T05:19:42;98229.31;;;20.52;50.16
56414;BME280;42318;48.452;19.526;2023-04-20T05:27:13;98233.38;;;20.50;50.51
56414;BME280;42318;48.452;19.526;2023-04-20T05:34:44;98224.41;;;20.49;49.88
56414;BME280;42318;48.452;19.526;2023-04-20T05:42:15;98222.50;;;20.50;50.70
56414;BME280;42318;48.452;19.526;2023-04-20T05:49:46;98225.75;;;20.47;50.27
56414;BME280;42318;48.452;19.526;2023-04-20T05:57:17;98234.72;;;20.47;50.25
56414;BME280;42318;48.452;19.526;2023-04-20T06:04:47;98227.38;;;20.48;50.27
56414;BME280;42318;48.452;19.526;2023-04-20T06:12:18;98236.38;;;20.48;50.25
56414;BME280;42318;48.452;19.526;2023-04-20T06:19:49;98240.44;;;20.46;50.21
56414;BME280;42318;48.452;19.526;2023-04-20T06:27:20;98239.88;;;20.44;50.46
56414;BME280;42318;48.452;19.526;2023-04-20T06:34:51;98245.88;;;20.46;50.52
56414;BME280;42318;48.452;19.526;2023-04-20T06:42:22;98230.06;;;20.43;50.31
56414;BME280;42318;48.452;19.526;2023-04-20T06:49:53;98239.38;;;20.52;50.14
56414;BME280;42318;48.452;19.526;2023-04-20T06:57:23;98235.56;;;20.53;50.29
56414;BME280;42318;48.452;19.526;2023-04-20T07:04:59;98239.94;;;20.54;50.09
56414;BME280;42318;48.452;19.526;2023-04-20T07:12:33;98245.38;;;20.59;50.12
56414;BME280;42318;48.452;19.526;2023-04-20T07:20:04;98239.13;;;20.58;50.10
56414;BME280;42318;48.452;19.526;2023-04-20T07:27:38;98247.56;;;20.57;50.10
56414;BME280;42318;48.452;19.526;2023-04-20T07:35:09;98245.66;;;20.57;50.04
56414;BME280;42318;48.452;19.526;2023-04-20T07:42:40;98247.84;;;20.60;50.23
56414;BME280;42318;48.452;19.526;2023-04-20T07:50:11;98242.97;;;20.62;49.92
56414;BME280;42318;48.452;19.526;2023-04-20T07:57:42;98247.59;;;20.67;49.85
56414;BME280;42318;48.452;19.526;2023-04-20T08:05:13;98251.41;;;20.66;50.09
56414;BME280;42318;48.452;19.526;2023-04-20T08:12:44;98257.13;;;20.69;49.84
56414;BME280;42318;48.452;19.526;2023-04-20T08:20:16;98250.91;;;20.79;49.60
56414;BME280;42318;48.452;19.526;2023-04-20T08:27:47;98257.53;;;20.93;49.27
56414;BME280;42318;48.452;19.526;2023-04-20T08:35:18;98243.91;;;20.88;49.61
56414;BME280;42318;48.452;19.526;2023-04-20T08:42:49;98238.44;;;20.88;49.64
56414;BME280;42318;48.452;19.526;2023-04-20T08:50:20;98236.22;;;20.80;49.91
56414;BME280;42318;48.452;19.526;2023-04-20T08:57:50;98230.19;;;20.68;50.06
56414;BME280;42318;48.452;19.526;2023-04-20T09:05:29;98240.53;;;20.66;50.01
56414;BME280;42318;48.452;19.526;2023-04-20T09:13:00;98239.16;;;20.63;50.45
56414;BME280;42318;48.452;19.526;2023-04-20T09:20:33;98234.78;;;20.62;50.28
56414;BME280;42318;48.452;19.526;2023-04-20T09:28:04;98224.72;;;20.63;50.30
56414;BME280;42318;48.452;19.526;2023-04-20T09:35:35;98227.19;;;20.69;50.25
56414;BME280;42318;48.452;19.526;2023-04-20T09:43:09;98227.47;;;20.73;50.09
56414;BME280;42318;48.452;19.526;2023-04-20T09:50:42;98214.19;;;20.82;49.97
56414;BME280;42318;48.452;19.526;2023-04-20T09:58:13;98207.94;;;20.81;50.08
56414;BME280;42318;48.452;19.526;2023-04-20T10:05:44;98211.22;;;20.88;50.11
56414;BME280;42318;48.452;19.526;2023-04-20T10:13:15;98205.22;;;20.86;49.69
56414;BME280;42318;48.452;19.526;2023-04-20T10:21:03;98202.25;;;20.93;49.55
56414;BME280;42318;48.452;19.526;2023-04-20T10:28:41;98199.25;;;20.94;49.66
56414;BME280;42318;48.452;19.526;2023-04-20T10:36:29;98204.41;;;20.96;49.92
56414;BME280;42318;48.452;19.526;2023-04-20T10:44:07;98203.06;;;20.98;49.86
56414;BME280;42318;48.452;19.526;2023-04-20T10:51:48;98192.72;;;21.00;49.56
56414;BME280;42318;48.452;19.526;2023-04-20T10:59:21;98202.53;;;21.01;49.50
56414;BME280;42318;48.452;19.526;2023-04-20T11:06:52;98189.72;;;21.02;49.78
56414;BME280;42318;48.452;19.526;2023-04-20T11:14:23;98184.28;;;21.02;49.40
56414;BME280;42318;48.452;19.526;2023-04-20T11:21:54;98187.81;;;21.08;49.69
56414;BME280;42318;48.452;19.526;2023-04-20T11:29:34;98184.56;;;21.16;49.56
56414;BME280;42318;48.452;19.526;2023-04-20T11:37:08;98187.84;;;21.13;49.38
56414;BME280;42318;48.452;19.526;2023-04-20T11:44:39;98182.13;;;21.14;49.22
56414;BME280;42318;48.452;19.526;2023-04-20T11:52:10;98178.56;;;21.09;49.19
56414;BME280;42318;48.452;19.526;2023-04-20T11:59:41;98179.94;;;21.11;49.36
56414;BME280;42318;48.452;19.526;2023-04-20T12:07:18;98170.41;;;21.14;49.31
56414;BME280;42318;48.452;19.526;2023-04-20T12:14:48;98170.94;;;21.16;49.53
56414;BME280;42318;48.452;19.526;2023-04-20T12:22:19;98168.75;;;21.08;49.63
56414;BME280;42318;48.452;19.526;2023-04-20T12:29:50;98151.59;;;21.02;49.71
56414;BME280;42318;48.452;19.526;2023-04-20T12:37:21;98157.31;;;21.06;49.37
56414;BME280;42318;48.452;19.526;2023-04-20T12:44:52;98148.31;;;21.05;49.85
56414;BME280;42318;48.452;19.526;2023-04-20T12:52:26;98140.16;;;21.05;49.58
56414;BME280;42318;48.452;19.526;2023-04-20T12:59:57;98145.06;;;21.08;49.79
56414;BME280;42318;48.452;19.526;2023-04-20T13:07:27;98130.06;;;21.11;49.53
56414;BME280;42318;48.452;19.526;2023-04-20T13:14:58;98134.97;;;21.14;49.47
56414;BME280;42318;48.452;19.526;2023-04-20T13:22:29;98139.34;;;21.15;49.71
56414;BME280;42318;48.452;19.526;2023-04-20T13:30:00;98146.16;;;21.17;49.75
56414;BME280;42318;48.452;19.526;2023-04-20T13:37:31;98151.88;;;21.16;49.88
56414;BME280;42318;48.452;19.526;2023-04-20T13:45:03;98191.66;;;21.17;49.60
56414;BME280;42318;48.452;19.526;2023-04-20T13:52:34;98181.28;;;21.14;49.37
56414;BME280;42318;48.452;19.526;2023-04-20T14:00:06;98175.31;;;21.12;49.96
56414;BME280;42318;48.452;19.526;2023-04-20T14:07:37;98176.38;;;21.11;49.93
56414;BME280;42318;48.452;19.526;2023-04-20T14:15:08;98175.84;;;21.14;49.55
56414;BME280;42318;48.452;19.526;2023-04-20T14:22:39;98167.13;;;21.12;49.98
56414;BME280;42318;48.452;19.526;2023-04-20T14:30:13;98154.59;;;21.11;50.03
56414;BME280;42318;48.452;19.526;2023-04-20T14:37:44;98151.88;;;21.06;49.65
56414;BME280;42318;48.452;19.526;2023-04-20T14:45:15;98151.88;;;21.06;50.10
56414;BME280;42318;48.452;19.526;2023-04-20T14:52:47;98162.75;;;21.06;49.71
56414;BME280;42318;48.452;19.526;2023-04-20T15:00:18;98169.84;;;21.07;50.01
56414;BME280;42318;48.452;19.526;2023-04-20T15:07:50;98167.41;;;21.05;49.79
56414;BME280;42318;48.452;19.526;2023-04-20T15:15:20;98167.41;;;21.05;49.83
56414;BME280;42318;48.452;19.526;2023-04-20T15:22:51;98161.69;;;21.07;49.95
56414;BME280;42318;48.452;19.526;2023-04-20T15:30:22;98161.94;;;21.05;49.82
56414;BME280;42318;48.452;19.526;2023-04-20T15:37:53;98167.94;;;21.12;49.90
56414;BME280;42318;48.452;19.526;2023-04-20T15:45:24;98150.50;;;21.08;49.79
56414;BME280;42318;48.452;19.526;2023-04-20T15:52:54;98154.06;;;21.14;49.76
56414;BME280;42318;48.452;19.526;2023-04-20T16:00:25;98162.22;;;21.14;49.82
56414;BME280;42318;48.452;19.526;2023-04-20T16:07:56;98159.50;;;21.14;49.61
56414;BME280;42318;48.452;19.526;2023-04-20T16:15:27;98174.47;;;21.11;49.63
56414;BME280;42318;48.452;19.526;2023-04-20T16:22:58;98181.28;;;21.09;49.87
56414;BME280;42318;48.452;19.526;2023-04-20T16:30:29;98170.94;;;21.11;49.95
56414;BME280;42318;48.452;19.526;2023-04-20T16:38:00;98181.28;;;21.09;49.90
56414;BME280;42318;48.452;19.526;2023-04-20T16:45:31;98180.75;;;21.07;50.20
56414;BME280;42318;48.452;19.526;2023-04-20T16:53:02;98189.47;;;21.09;50.08
56414;BME280;42318;48.452;19.526;2023-04-20T17:00:33;98188.38;;;21.10;49.85
56414;BME280;42318;48.452;19.526;2023-04-20T17:08:05;98194.91;;;21.09;49.99
56414;BME280;42318;48.452;19.526;2023-04-20T17:15:36;98204.16;;;21.08;49.76
56414;BME280;42318;48.452;19.526;2023-04-20T17:23:07;98206.06;;;21.02;49.95
56414;BME280;42318;48.452;19.526;2023-04-20T17:30:38;98216.97;;;21.02;50.34
56414;BME280;42318;48.452;19.526;2023-04-20T17:38:09;98213.97;;;20.98;50.25
56414;BME280;42318;48.452;19.526;2023-04-20T17:45:40;98218.31;;;20.99;50.37
56414;BME280;42318;48.452;19.526;2023-04-20T17:53:11;98227.59;;;21.04;50.30
56414;BME280;42318;48.452;19.526;2023-04-20T18:00:42;98232.78;;;21.05;50.50
56414;BME280;42318;48.452;19.526;2023-04-20T18:08:13;98247.22;;;21.06;50.46
56414;BME280;42318;48.452;19.526;2023-04-20T18:15:45;98247.22;;;21.11;50.45
56414;BME280;42318;48.452;19.526;2023-04-20T18:23:15;98262.47;;;21.07;50.81
56414;BME280;42318;48.452;19.526;2023-04-20T18:30:47;98271.44;;;21.02;50.73
56414;BME280;42318;48.452;19.526;2023-04-20T18:38:18;98279.88;;;21.00;50.87
56414;BME280;42318;48.452;19.526;2023-04-20T18:45:48;98279.03;;;20.95;50.94
56414;BME280;42318;48.452;19.526;2023-04-20T18:53:19;98281.50;;;20.96;50.57
56414;BME280;42318;48.452;19.526;2023-04-20T19:00:50;98289.41;;;20.98;50.83
56414;BME280;42318;48.452;19.526;2023-04-20T19:08:21;98292.13;;;20.98;51.20
56414;BME280;42318;48.452;19.526;2023-04-20T19:15:55;98300.59;;;21.01;50.97
56414;BME280;42318;48.452;19.526;2023-04-20T19:23:27;98312.00;;;20.98;50.89
56414;BME280;42318;48.452;19.526;2023-04-20T19:30:58;98316.41;;;21.05;51.24
56414;BME280;42318;48.452;19.526;2023-04-20T19:38:29;98316.94;;;21.07;51.33
56414;BME280;42318;48.452;19.526;2023-04-20T19:46:01;98326.78;;;21.13;50.84
56414;BME280;42318;48.452;19.526;2023-04-20T19:53:32;98316.41;;;21.10;50.69
56414;BME280;42318;48.452;19.526;2023-04-20T20:01:03;98321.31;;;21.08;50.59
56414;BME280;42318;48.452;19.526;2023-04-20T20:08:34;98334.09;;;21.07;50.73
56414;BME280;42318;48.452;19.526;2023-04-20T20:16:05;98323.72;;;20.99;50.61
56414;BME280;42318;48.452;19.526;2023-04-20T20:23:36;98337.09;;;21.00;50.34
56414;BME280;42318;48.452;19.526;2023-04-20T20:31:07;98328.91;;;21.00;50.71
56414;BME280;42318;48.452;19.526;2023-04-20T20:38:37;98331.63;;;21.00;50.68
56414;BME280;42318;48.452;19.526;2023-04-20T20:46:10;98324.53;;;20.99;50.98
56414;BME280;42318;48.452;19.526;2023-04-20T20:53:40;98344.44;;;21.00;51.03
56414;BME280;42318;48.452;19.526;2023-04-20T21:01:12;98338.47;;;21.08;50.63
56414;BME280;42318;48.452;19.526;2023-04-20T21:08:42;98345.63;;;21.24;51.04
56414;BME280;42318;48.452;19.526;2023-04-20T21:16:13;98333.69;;;21.30;50.36
56414;BME280;42318;48.452;19.526;2023-04-20T21:23:44;98333.44;;;21.32;50.11
56414;BME280;42318;48.452;19.526;2023-04-20T21:31:15;98339.44;;;21.34;50.35
56414;BME280;42318;48.452;19.526;2023-04-20T21:38:46;98339.31;;;21.14;50.80
56414;BME280;42318;48.452;19.526;2023-04-20T21:46:16;98338.47;;;21.08;50.92
56414;BME280;42318;48.452;19.526;2023-04-20T21:53:47;98342.53;;;21.06;51.17
56414;BME280;42318;48.452;19.526;2023-04-20T22:01:18;98331.09;;;21.04;51.71
56414;BME280;42318;48.452;19.526;2023-04-20T22:08:49;98342.25;;;21.02;51.38
56414;BME280;42318;48.452;19.526;2023-04-20T22:16:20;98342.00;;;21.09;51.14
56414;BME280;42318;48.452;19.526;2023-04-20T22:23:51;98339.31;;;21.14;51.01
56414;BME280;42318;48.452;19.526;2023-04-20T22:31:22;98335.78;;;21.18;51.06
56414;BME280;42318;48.452;19.526;2023-04-20T22:38:53;98335.81;;;21.23;50.51
56414;BME280;42318;48.452;19.526;2023-04-20T22:46:24;98335.88;;;21.28;50.62
56414;BME280;42318;48.452;19.526;2023-04-20T22:53:55;98329.63;;;21.38;50.16
56414;BME280;42318;48.452;19.526;2023-04-20T23:01:25;98326.91;;;21.38;50.22
56414;BME280;42318;48.452;19.526;2023-04-20T23:08:56;98325.00;;;21.34;50.38
56414;BME280;42318;48.452;19.526;2023-04-20T23:16:29;98323.06;;;21.34;50.59
56414;BME280;42318;48.452;19.526;2023-04-20T23:24:00;98330.16;;;21.30;50.48
56414;BME280;42318;48.452;19.526;2023-04-20T23:31:30;98317.50;;;21.14;50.52
56414;BME280;42318;48.452;19.526;2023-04-20T23:39:01;98320.72;;;20.95;50.92
56414;BME280;42318;48.452;19.526;2023-04-20T23:46:32;98323.41;;;20.85;50.89
56414;BME280;42318;48.452;19.526;2023-04-20T23:54:03;98318.72;;;20.81;51.01
